x

8454049 - Quonset Point, Ri (qptr1) Weather Station

3:54pm - Sun 30th Apr 2017 All times are EDT. -4 hours from GMT.

  • Wind
    15mph, 17mph gusts
  • Sea Temp 52°f
  • Air Temp 50°f
  • Sea Pressure 1025.4mb
  • 8454049 - Quonset Point, Ri
  • 8454049 - Quonset Point, Ri

More Historic Weather Station data

Upgrade to MSW Pro to gain access to the past 30 days of data for over 8000 Wavebouys and Weather Stations around the globe.

Join Pro

Comparision Forecast

View Surf forecast
   
Sun 04/30 3:54pm 15 17 mph 1025.4mb 52f 50f
3:48pm 15 17 mph 1025.2mb 52f 50f
3:42pm 16 18 mph 1025.3mb 52f 50f
3:36pm 14 16 mph 1025.4mb 52f 50f
3:30pm 14 17 mph 1025.4mb 52f 50f
3:24pm 13 18 mph 1025.2mb 52f 50f
3:18pm 13 17 mph - - -
3:12pm 16 18 mph 1024.9mb 51f 51f
3:06pm 15 18 mph 1024.7mb 51f 52f
2:54pm 16 20 mph 1024.8mb 51f 52f
2:48pm 18 22 mph 1024.7mb 51f 52f
2:42pm 16 21 mph 1024.6mb 50f 52f
2:36pm 15 18 mph 1024.8mb 50f 52f
2:30pm 15 17 mph 1025.3mb 50f 53f
2:24pm 13 15 mph 1025.3mb 50f 53f
2:18pm 13 16 mph 1025.7mb 50f 53f
2:12pm 13 14 mph 1025.9mb 51f 53f
2:06pm 11 14 mph 1026.1mb 50f 53f
2:00pm 10 13 mph 1026.3mb 50f 53f
1:54pm 9 13 mph 1026.2mb 50f 53f
1:48pm 9 11 mph - - -
1:42pm 11 14 mph 1026.1mb 50f 53f
1:36pm 13 14 mph 1025.9mb 50f 53f
1:30pm 11 14 mph 1025.7mb 50f 54f
1:24pm 8 10 mph 1025.6mb 51f 54f
1:18pm 6 9 mph - - -
1:12pm 10 11 mph 1025.4mb 51f 55f
1:06pm 10 13 mph 1025mb 51f 55f
1:00pm 11 14 mph 1025.2mb 52f 55f
12:54pm 9 11 mph 1025.3mb 52f 55f
12:48pm 10 15 mph - - -
12:42pm 14 16 mph 1025.2mb 52f 54f
12:36pm 11 14 mph 1025.1mb 51f 55f
12:30pm 13 15 mph 1025.1mb 52f 55f
12:24pm 13 15 mph 1025.2mb 52f 54f
12:18pm 11 14 mph 1025.3mb 52f 54f
12:12pm 10 13 mph 1025.3mb 52f 54f
12:06pm 11 14 mph 1025.1mb 51f 54f
12:00pm 10 14 mph 1025.3mb 51f 54f
11:54am 9 13 mph 1025.4mb 51f 55f
11:48am 8 10 mph - - -
11:42am 5 6 mph 1025.2mb 52f 57f
11:36am 2 3 mph 1025mb 52f 57f
11:30am 2
mph
1024.9mb 52f 58f
11:24am 3 5 mph 1024.9mb 52f 57f
11:18am 3 5 mph 1024.8mb 52f 56f
11:12am 5 6 mph 1025mb 52f 56f
11:06am 5 6 mph 1024.9mb 52f 56f
11:00am 2 6 mph 1025mb 52f 56f
10:54am 6 8 mph 1025.1mb 52f 56f
10:48am 6 7 mph - - -
10:42am 5 6 mph 1025.2mb 52f 55f
10:36am 6 7 mph 1025.2mb 52f 55f
10:30am 7 9 mph 1025.2mb 52f 55f
10:24am 8 9 mph 1025.2mb 52f 55f
10:18am 9 10 mph 1025.3mb 52f 55f
10:12am 9 10 mph 1025.1mb 52f 55f
10:06am 9 10 mph 1025.3mb 52f 55f
10:00am 8 11 mph 1025.3mb 51f 55f
9:54am 10 13 mph 1025.3mb 51f 55f
9:48am 10 11 mph - - -
9:42am 10 13 mph 1025.5mb 51f 56f
9:36am 11 13 mph 1025.4mb 51f 56f
9:30am 11 14 mph 1025.5mb 51f 56f
9:24am 11 13 mph 1025.3mb 51f 56f
9:18am 9 14 mph - - -
9:12am 11 14 mph 1025.2mb 51f 55f
9:06am 11 14 mph 1025.3mb 51f 55f
9:00am 11 14 mph 1025.3mb 51f 55f
8:48am 11 14 mph - - -
8:42am 13 14 mph 1025mb 51f 55f
8:36am 13 17 mph 1025mb 51f 54f
8:30am 15 16 mph 1024.8mb 51f 54f
8:24am 15 16 mph 1024.8mb 51f 54f
8:18am 15 16 mph - - -
8:12am 14 16 mph 1024.9mb 51f 55f
8:06am 14 17 mph 1025mb 51f 55f
8:00am 16 20 mph 1024.7mb 51f -
7:54am 16 18 mph 1024.6mb 51f 55f
7:48am 17 20 mph - - -
7:42am 16 18 mph 1024.5mb 51f 55f
7:36am 16 18 mph 1024.4mb 51f 55f
7:30am 15 16 mph 1024.2mb 51f 56f
7:24am 14 17 mph 1024.3mb 51f 56f
7:18am 10 14 mph 1024.3mb 51f 56f
7:12am 11 13 mph 1024.2mb 51f 56f
7:06am 9 11 mph 1024mb 50f 56f
7:00am 8 14 mph 1024mb 51f 56f
6:54am 10 11 mph 1024mb 50f 56f
6:48am 10 14 mph - - -
6:42am 11 15 mph 1023.7mb 50f 56f
6:36am 14 16 mph 1023.5mb 50f 56f
6:30am 15 17 mph 1023.4mb 49f 56f
6:24am 9 10 mph 1023.3mb 49f 56f
6:18am 7 9 mph 1023.2mb 50f 56f
6:12am 7 10 mph 1022.8mb 50f 56f
6:06am 7 9 mph 1022.7mb 49f 56f
6:00am 6 9 mph 1022.7mb 49f 57f
5:54am 9 10 mph 1022.3mb 49f 57f
5:48am 8 10 mph 1022.1mb 49f 57f
5:42am 9 11 mph 1022mb 49f 57f
5:36am 9 11 mph 1021.8mb 49f 57f
5:30am 9 11 mph 1021.7mb 49f 57f
5:24am 10 14 mph 1021.6mb 49f 57f
5:18am 10 14 mph 1021.3mb 49f 57f
5:12am 9 13 mph 1021.5mb 49f 57f
5:06am 10 13 mph 1021.4mb 49f 58f
5:00am 9 11 mph 1021.4mb 49f 58f
4:54am 9 14 mph 1021.4mb 49f 58f
4:48am 10 15 mph 1021.4mb 49f 58f
4:42am 10 14 mph 1021.3mb 49f 58f
4:36am 8 11 mph 1021.3mb 49f 58f
4:30am 9 13 mph 1021.4mb 49f 59f
4:24am 9 11 mph 1021.2mb 49f 59f
4:18am 9 14 mph 1020.9mb 49f 59f
4:12am 9 13 mph 1020.8mb 49f 59f
4:06am 10 14 mph 1021mb 49f 59f
4:00am 8 11 mph 1020.9mb 49f 60f
3:54am 8 14 mph 1020.8mb 49f 60f
3:48am 10 15 mph 1020.6mb 49f 60f
3:42am 8 10 mph 1020.7mb 49f 60f
3:36am 7 11 mph 1020.7mb 49f 60f
3:30am 7 13 mph 1020.6mb 49f 60f
3:24am 6 9 mph 1020.6mb 49f 60f
3:18am 8 15 mph - - -
3:12am 9 16 mph 1020.3mb 49f 61f
3:06am 8 13 mph 1020.4mb 49f 61f
3:00am 10 17 mph 1020.3mb 49f 61f
2:54am 10 14 mph 1020.3mb 49f 62f
2:48am 10 17 mph 1020.1mb 49f 62f
2:42am 11 18 mph 1020.2mb 49f -
2:36am 11 18 mph 1020.2mb 49f -
2:30am 10 15 mph 1020.1mb 49f 62f
2:24am 9 14 mph 1020mb 49f 62f
2:18am 9 13 mph 1019.8mb 50f 63f
2:12am 8 14 mph 1019.9mb 50f 63f
2:06am 10 15 mph 1019.6mb 50f 63f
2:00am 9 16 mph 1019.6mb 50f 63f
1:54am 13 20 mph 1019.7mb 50f 64f
1:48am 9 13 mph 1019.4mb 50f 64f
1:42am 9 13 mph 1019.3mb 50f 64f
1:36am 9 16 mph 1019.3mb 49f 64f
1:30am 10 14 mph 1019.2mb 50f 64f
1:24am 8 13 mph 1019.2mb 50f 64f
1:18am 9 15 mph 1019.2mb 50f 65f
1:12am 10 17 mph 1019.2mb 50f 65f
1:06am 13 21 mph 1019.1mb 50f 65f
1:00am 10 14 mph 1019mb 50f 65f
12:54am 11 15 mph 1019.1mb 50f 66f
12:48am 8 11 mph 1019mb 50f 66f
12:42am 9 15 mph 1018.6mb 50f 66f
12:36am 7 16 mph 1018.7mb 50f 66f
12:30am 14 20 mph 1018.5mb 50f 67f
12:24am 13 21 mph 1018.4mb 50f 67f
12:18am 10 16 mph 1018.4mb 50f 66f
12:12am 14 17 mph 1018.3mb 50f 67f
12:06am 11 17 mph 1018.2mb 50f 67f
12:00am 9 13 mph 1018.1mb 50f 67f
Sat 04/29 11:54pm 7 10 mph 1018.2mb 50f 67f
11:48pm 9 14 mph - - -
11:42pm 10 15 mph 1017.6mb 50f 67f
11:36pm 8 13 mph 1017.4mb 50f 67f
11:30pm 8 13 mph 1017.2mb 50f 65f
11:24pm 11 15 mph 1017.1mb 50f 65f
11:18pm 10 13 mph 1017.2mb 50f 64f
11:12pm 9 16 mph 1017.3mb 50f 68f
11:06pm 9 14 mph 1017.4mb 50f 69f
11:00pm 9 17 mph 1017.4mb 50f 69f
10:54pm 10 17 mph 1017.4mb 50f 69f
10:48pm 14 22 mph - - -
10:42pm 10 22 mph 1017.4mb 50f 69f
10:36pm 16 26 mph 1017.3mb 50f 70f
10:30pm 16 24 mph 1017.2mb 51f 70f
10:24pm 17 24 mph 1017.4mb 51f 70f
10:18pm 8 17 mph 1017.5mb - -
10:12pm 11 17 mph 1017.4mb 52f 71f
10:06pm 9 21 mph 1017.2mb 52f 70f
10:00pm 10 16 mph 1017.2mb 52f -
9:54pm 15 21 mph 1017.1mb 52f 71f
9:48pm 10 18 mph 1017mb - -
9:42pm 9 16 mph 1016.8mb 52f 71f
9:36pm 15 21 mph 1016.7mb 52f 71f
9:30pm 10 18 mph 1016.8mb 52f 71f
9:24pm 11 20 mph 1016.7mb 52f 71f
9:18pm 11 15 mph 1016.5mb - -
9:12pm 10 18 mph 1016.4mb 52f 71f
9:06pm 11 17 mph 1016.3mb 53f 72f
9:00pm 14 18 mph 1016.2mb 53f 72f
8:42pm 11 18 mph 1015.5mb 53f 73f
8:36pm 11 16 mph 1015.2mb 53f 73f
8:30pm 9 14 mph 1015.1mb 53f 74f
8:24pm 9 14 mph 1014.8mb 53f 74f
8:18pm 9 16 mph 1014.6mb - -
8:12pm 13 21 mph 1014.6mb 53f 74f
8:06pm 13 20 mph 1014.7mb 52f 74f
8:00pm 14 22 mph 1014.5mb 51f 75f
7:54pm 14 20 mph 1014.5mb 51f 75f
7:48pm 13 23 mph 1014.1mb - -
7:42pm 16 23 mph 1013.8mb 51f 76f
7:36pm 11 17 mph 1013.1mb 51f 77f
7:30pm 11 16 mph 1013mb 51f -
7:24pm 13 20 mph 1013mb 52f 79f
7:18pm 11 20 mph 1013mb - -
7:12pm 11 18 mph 1012.9mb 52f 80f
7:06pm 13 17 mph 1012.6mb 52f 80f
7:00pm 15 20 mph 1012.4mb 52f 81f
6:48pm 15 21 mph 1012.6mb - -
6:42pm 10 18 mph 1012.5mb 54f 82f
6:36pm 13 15 mph 1012.3mb 54f -
6:30pm 9 18 mph 1012.5mb 54f -
6:24pm 14 22 mph 1012.5mb 54f -
6:18pm 10 16 mph - - -
6:12pm 11 17 mph 1012.5mb 54f -
6:06pm 16 22 mph 1012.3mb 54f -
6:00pm 15 23 mph 1012.1mb 55f -
5:48pm 11 15 mph - - -
5:42pm 14 17 mph 1012.1mb 55f 73f
5:36pm 15 17 mph 1011.7mb 55f 77f
5:30pm 15 16 mph 1011.5mb 55f 73f
5:24pm 14 17 mph 1011.4mb 55f 76f
5:18pm 16 17 mph 1011.5mb 55f 75f
5:12pm 14 23 mph 1011.5mb 55f 75f
5:00pm 16 20 mph 1011.5mb 55f 74f
4:54pm 18 23 mph 1011.6mb 54f 74f
4:48pm 18 21 mph 1011.6mb 55f 74f
4:42pm 16 23 mph 1011.7mb 54f 75f
4:36pm 22 26 mph 1011.6mb 54f 74f
4:30pm 23 25 mph 1011.3mb 54f 76f
4:24pm 21 25 mph 1011.2mb 54f 75f
4:18pm 20 25 mph 1011.3mb 55f 74f
4:12pm 22 25 mph 1011mb 55f 75f
4:06pm 21 24 mph 1010.9mb 55f 75f
3:54pm 17 20 mph 1010.8mb 54f 74f
3:48pm 14 18 mph 1010.7mb 54f 73f
3:42pm 17 21 mph 1010.7mb 54f 73f
3:36pm 17 20 mph 1010.8mb 54f 73f
3:30pm 17 21 mph 1010.9mb 55f 73f
3:24pm 13 17 mph 1010.8mb 54f 68f
3:18pm 17 18 mph 1010.8mb 54f 67f
3:12pm 14 16 mph 1010.6mb 54f 62f
3:06pm 14 15 mph 1010.8mb 53f 61f
3:00pm 11 17 mph 1010.9mb 53f 67f
2:54pm 15 21 mph 1011.1mb 54f 64f
2:48pm 21 23 mph 1010.9mb 54f 71f
2:42pm 11 15 mph 1010.9mb 54f 66f
2:36pm 14 16 mph 1010.9mb 53f 65f
2:30pm 15 16 mph 1010.9mb 53f 64f
2:24pm 9 13 mph 1010.8mb 53f 65f
2:18pm 10 14 mph 1011mb 53f 72f
2:12pm 11 13 mph 1011.2mb 53f 72f
2:06pm 11 14 mph 1011.2mb 53f 71f
2:00pm 13 16 mph 1011.3mb 52f 74f
1:54pm 14 15 mph 1011.4mb 50f 71f
1:48pm 13 16 mph 1011.4mb 49f 70f
1:42pm 14 15 mph 1011.4mb 49f 70f
1:36pm 10 13 mph 1011.4mb 49f 67f
1:30pm 10 15 mph 1011.6mb 49f 69f
1:24pm 15 16 mph 1011.9mb 49f 69f
1:18pm 13 14 mph 1012.1mb 49f 66f
1:12pm 14 16 mph 1012.2mb 50f 64f
1:06pm 10 11 mph 1012.4mb 50f 64f
12:54pm 11 13 mph 1012.3mb 50f 64f
12:48pm 9 11 mph 1012.6mb 50f 64f
12:36pm 8 11 mph 1013.2mb 50f 65f
12:30pm 11 13 mph 1013.3mb 50f 64f
12:24pm 10 11 mph 1013.3mb 50f 62f
12:18pm 10 13 mph 1013.6mb 50f 62f
12:12pm 8 10 mph 1013.6mb 50f 63f
12:06pm 9 13 mph 1013.7mb 50f 66f
12:00pm 11
mph
1013.8mb 50f 65f
11:54am 11 16 mph 1014mb 50f 66f
11:48am 13 15 mph - - -
11:42am 15 18 mph 1014.4mb 50f 67f
11:36am 14 15 mph 1014.6mb 50f 67f
11:30am 14 18 mph 1014.6mb 50f 65f
11:24am 18 20 mph 1014.7mb 50f 65f
11:18am 16 17 mph 1014.8mb 51f 64f
11:12am 16 20 mph 1014.9mb 51f 61f
11:06am 17 20 mph 1014.9mb 51f 60f
11:00am 16 18 mph 1015.2mb 51f 60f
10:54am 14 17 mph 1015.3mb 50f 59f
10:48am 15 17 mph 1015.2mb 50f 58f
10:42am 7 10 mph 1015.4mb 50f 58f
10:36am 5 6 mph 1015.3mb 50f 56f
10:30am 5
mph
1015.3mb 50f 56f
10:24am 2 5 mph 1015.3mb 51f 55f
10:18am 5
mph
1015.2mb 51f 55f
10:12am 5 6 mph 1015.2mb 51f 55f
10:06am 5 6 mph 1015.2mb 51f 58f
10:00am 6
mph
1015.3mb 51f 58f
9:54am 5 7 mph 1015.3mb 51f 60f
9:48am 7 11 mph 1015.4mb 51f 59f
9:42am 7 9 mph 1015.6mb 51f 56f
9:36am 8 9 mph 1015.3mb 51f 56f
9:30am 8 10 mph 1015.1mb 51f 56f
9:24am 10 14 mph 1015mb 51f 56f
9:18am 9 13 mph 1015.2mb 51f 55f
9:12am 13 17 mph 1015.3mb 51f 54f
9:06am 15 16 mph 1015.3mb 51f 53f
9:00am 15 18 mph 1015.1mb 51f 53f
8:54am 14 16 mph 1015.1mb 51f 53f
8:48am 13 18 mph 1015.1mb 51f 54f
8:42am 16 18 mph 1015.2mb 51f 53f
8:36am 11 14 mph 1015.2mb 51f 54f
8:30am 11 14 mph 1015.3mb 51f 54f
8:24am 13 22 mph 1015.3mb 51f 55f
8:18am 20 21 mph 1015.6mb 51f 55f
8:12am 13
mph
1015.5mb 51f 54f
8:06am 11 13 mph 1015.5mb 51f 55f
8:00am 13 15 mph 1015.4mb 51f 55f
7:54am 14
mph
1015.7mb 52f 55f
7:48am 13 14 mph 1016mb 52f 55f
7:42am 10 13 mph 1016.2mb 51f 56f
7:36am 9 11 mph 1016.1mb 51f 57f
7:30am 10 11 mph 1016.1mb 51f 55f
7:24am 11 15 mph 1016mb 51f 55f
7:18am 14 15 mph 1015.7mb 51f 55f
7:12am 11 13 mph 1015.5mb 51f 55f
7:06am 10 13 mph 1015.5mb 51f 56f
7:00am 13 17 mph 1015.4mb 51f 55f
6:54am 15 17 mph 1015.6mb 51f 54f
6:48am 13 14 mph 1015.6mb 51f 55f
6:42am 13 14 mph 1015.7mb 51f 55f
6:36am 11 13 mph 1015.8mb 51f 53f
6:30am 14 15 mph 1015.8mb 51f 54f
6:24am 13 18 mph 1015.8mb 51f 57f
6:18am 15 17 mph 1015.9mb 51f 57f
6:12am 6 7 mph 1015.5mb 51f 56f
6:06am 7
mph
1015.7mb 51f 58f
5:54am 5 6 mph 1015.1mb 51f 61f
5:48am 6 8 mph 1014.9mb 51f 60f
5:42am 6 7 mph 1015.1mb 51f 58f
5:36am 6 7 mph 1015.6mb 51f 59f
5:30am 6 7 mph 1015.8mb 51f 58f
5:24am 5 7 mph 1015.9mb 51f 59f
5:18am 7 8 mph 1016.2mb 51f 57f
5:12am 8 9 mph 1016.4mb 51f 58f
5:06am 9 10 mph 1016.4mb 50f 59f
5:00am 10 11 mph 1016.4mb 50f 60f
4:54am 10 11 mph 1016.3mb 49f 59f
4:48am 11 13 mph 1016.4mb 49f 60f
4:42am 11 13 mph 1016.5mb 49f 59f
4:36am 11 13 mph 1016.4mb 49f 60f
4:30am 13 14 mph 1016.5mb 49f 60f
4:24am 11 14 mph 1016.7mb 49f 60f
4:18am 11 13 mph - - -
4:12am 11
mph
1016.7mb 49f 60f
4:06am 11 13 mph 1016.6mb 49f 60f
4:00am 10 11 mph 1016.4mb 49f 60f
3:54am 10 11 mph 1016.3mb 51f 60f
3:48am 9 14 mph 1016.2mb 49f 60f
3:42am 11 14 mph 1016.5mb 48f 60f
3:36am 13 14 mph 1016.5mb 49f 57f
3:30am 9 10 mph 1016.1mb 49f 58f
3:24am 9 11 mph 1016mb 49f 59f
3:18am 8 9 mph 1016mb 50f 59f
3:12am 8 9 mph 1016.3mb 52f 59f
3:06am 9 10 mph 1016.4mb 53f 59f
3:00am 9 10 mph 1016.6mb 53f 59f
2:54am 9 10 mph 1016.5mb 52f 59f
2:48am 9
mph
1016.5mb - -
2:42am 7 8 mph 1016.4mb 52f 58f
2:36am 7 8 mph 1016.5mb 52f 56f
2:30am 8 9 mph 1016.6mb 52f -
2:24am 8 9 mph 1016.7mb 52f 53f
2:18am 7 8 mph - - -
2:12am 7 11 mph 1016.6mb 52f 54f
2:06am 8 9 mph 1016.6mb 51f 54f
2:00am 8 9 mph 1016.6mb 51f 56f
1:54am 8 10 mph 1016.6mb 51f 56f
1:48am 9 10 mph 1016.8mb 51f 56f
1:42am 9 13 mph 1016.8mb 51f -
1:36am 11 13 mph 1016.8mb 49f -
1:30am 9 10 mph 1016.8mb 49f 57f
1:24am 9 10 mph 1016.8mb 49f 57f
1:18am 9 11 mph 1016.7mb 49f 56f
1:12am 9 10 mph 1016.9mb 49f 56f
1:06am 10 11 mph 1017mb 49f 56f
1:00am 10 11 mph 1017mb 49f 57f
12:54am 9 13 mph 1016.9mb 49f 56f
12:48am 10 11 mph 1016.9mb 49f 56f
12:42am 10 11 mph 1017mb 49f 55f
12:36am 10 13 mph 1017mb 49f 56f
12:30am 10 13 mph 1017mb 49f 56f
12:24am 10 11 mph 1017mb 49f 56f
12:18am 10 13 mph 1017mb 49f 55f
12:12am 13 14 mph 1017.1mb 49f 55f
12:06am 13 14 mph 1017mb 49f 55f
12:00am 13 14 mph 1016.8mb 49f 55f
Fri 04/28 11:54pm 13 14 mph 1016.8mb 50f 56f
11:48pm 11 13 mph - - -
11:42pm 11 13 mph 1016.6mb 49f 56f
11:36pm 10 11 mph 1016.5mb 50f 57f
11:30pm 10 11 mph 1016.6mb 49f 57f
11:24pm 9 10 mph 1016.7mb 49f 57f
11:18pm 9 10 mph 1016.7mb 49f 57f
11:12pm 9 10 mph 1016.7mb 49f 58f
11:06pm 9 10 mph 1016.8mb 49f 57f
11:00pm 8 9 mph 1017mb 49f -
10:54pm 6 9 mph 1017mb 49f 57f
10:48pm 6 8 mph - - -
10:42pm 7 9 mph 1017mb 49f 57f
10:36pm 8 10 mph 1017.1mb 49f 58f
10:30pm 9 10 mph 1017mb 50f 58f
10:24pm 10 11 mph 1017.1mb 50f 58f
10:18pm 11
mph
- - -
10:12pm 9 11 mph 1017.3mb 50f 56f
10:06pm 10 11 mph 1017.2mb 51f 56f
10:00pm 9
mph
1017.1mb 51f 57f
9:54pm 8
mph
1017.2mb 51f 58f
9:48pm 8 10 mph 1017.2mb - -
9:42pm 8 11 mph 1017.1mb 51f 59f
9:36pm 11 14 mph 1017.1mb 51f 58f
9:30pm 13 15 mph 1017mb 51f 57f
9:24pm 11 14 mph 1016.9mb 51f 58f
9:18pm 10 11 mph 1016.9mb - -
9:12pm 11 13 mph 1016.8mb 51f 57f
9:06pm 11 14 mph 1016.8mb 51f 57f
9:00pm 14 17 mph 1016.8mb 51f 56f
8:48pm 15 17 mph - - -
8:42pm 15 16 mph 1016.3mb 51f 57f
8:36pm 15 17 mph 1016.3mb 51f 57f
8:30pm 15 16 mph 1016.1mb 51f 58f
8:24pm 14 15 mph 1016mb 51f 58f
8:18pm 13 14 mph 1016mb - -
8:12pm 13 14 mph 1015.9mb 51f 57f
8:06pm 14 15 mph 1015.7mb 51f 59f
8:00pm 15 16 mph 1015.5mb 51f 59f
7:48pm 13
mph
1015.4mb - -
7:42pm 11
mph
1015.5mb 52f 59f
7:36pm 8 10 mph 1015.4mb 52f 61f
7:30pm 8 9 mph 1015.1mb 52f 63f
7:24pm 9 10 mph 1015.1mb 52f 65f
7:18pm 10 14 mph - - -
7:12pm 13 14 mph 1015.1mb 52f 67f
7:06pm 14
mph
1015.2mb 53f 66f
7:00pm 9 14 mph 1015.1mb 54f -
6:54pm 9 10 mph 1015mb 54f 62f
6:48pm 10 13 mph 1015mb - -
6:42pm 11 16 mph 1015mb 55f 61f
6:36pm 16 17 mph 1015mb 55f 60f
6:30pm 16 18 mph 1015.1mb 55f 60f
6:24pm 16 20 mph 1015.1mb 54f 60f
6:18pm 15 18 mph - - -
6:12pm 13 14 mph 1015mb 54f 62f
6:06pm 13 15 mph 1015mb 54f 63f
6:00pm 15 18 mph 1014.9mb 54f 60f
5:48pm 17 21 mph 1014.9mb - -
5:42pm 18 21 mph 1014.8mb 54f 59f
5:36pm 17 18 mph 1014.8mb 54f 60f
5:30pm 16 17 mph 1014.7mb 54f 62f
5:24pm 15 16 mph 1014.5mb 54f 63f
5:18pm 15 16 mph 1014.4mb 54f 64f
5:12pm 13 17 mph 1014.3mb 53f 65f
5:06pm 10 14 mph 1014.3mb 53f 63f
5:00pm 13 17 mph 1014.3mb 53f 65f
4:54pm 16 18 mph 1014.1mb 53f 71f
4:48pm 15 21 mph - - -
4:42pm 11 14 mph 1014.3mb 53f 68f
4:36pm 13 14 mph 1014.3mb 53f 65f
4:30pm 11 14 mph 1014.2mb 53f 64f
4:18pm 14 15 mph 1014.3mb 53f 68f
4:12pm 11 15 mph 1014.3mb 53f 64f
4:06pm 14 16 mph 1014.4mb 53f 61f
4:00pm 15 18 mph 1014.3mb 53f 60f
3:54pm 17 18 mph 1014.3mb 53f 60f
3:48pm 17 20 mph 1014.3mb 53f 60f
3:42pm 18 21 mph 1014.3mb 53f 60f
3:36pm 21 22 mph 1014.3mb 53f 61f
3:30pm 21 22 mph 1014.1mb 53f 61f
3:24pm 20 21 mph 1014.3mb 53f 61f
3:18pm 18 21 mph - - -
3:12pm 18 21 mph 1014.1mb 53f 60f
3:06pm 21 22 mph 1014.1mb 53f 59f
3:00pm 20 22 mph 1014.3mb 53f 59f
2:54pm 20 22 mph 1014.5mb 53f 59f
2:42pm 20 21 mph 1014.6mb 52f 60f
2:36pm 18 20 mph 1014.6mb 52f 60f
2:30pm 17 18 mph 1014.7mb 52f 59f
2:24pm 18 20 mph 1014.8mb 52f 59f
2:18pm 17 18 mph 1014.9mb 52f 59f
2:12pm 17 20 mph 1015mb 52f 58f
2:06pm 17 18 mph 1015.1mb 52f 58f
2:00pm 18 20 mph 1015.2mb 52f 58f
1:54pm 17 21 mph 1015.2mb 52f 58f
1:48pm 18 21 mph - - -
1:42pm 21 23 mph 1015.3mb 51f 58f
1:36pm 20 21 mph 1015.1mb 51f 60f
1:30pm 17 20 mph 1015.1mb 49f 58f
1:24pm 20 21 mph 1015mb 49f 57f
1:18pm 18 21 mph 1015.1mb 49f 56f
1:12pm 17 18 mph 1015.1mb 49f 58f
1:06pm 17 20 mph 1015.1mb 49f 58f
1:00pm 16 17 mph 1015.1mb 49f 58f
12:54pm 16
mph
1015mb 49f 58f
12:48pm 15 16 mph 1015mb 49f 57f
12:42pm 14 16 mph 1015mb 50f 56f
12:36pm 14 16 mph 1015mb 49f 55f
12:30pm 14 15 mph 1015.1mb 49f 55f
12:24pm 13 15 mph 1015.2mb 49f 55f
12:18pm 14 15 mph 1015.3mb 50f 54f
12:12pm 11 14 mph 1015.4mb 50f 54f
12:06pm 11 13 mph 1015.4mb 49f 55f
12:00pm 11 13 mph 1015.4mb 50f 55f
11:54am 10 11 mph 1015.5mb 50f 55f
11:48am 9 10 mph - - -
11:42am 9 10 mph 1015.4mb 50f 55f
11:36am 9 11 mph 1015.4mb 49f 55f
11:30am 11 14 mph 1015.5mb 49f 54f
11:24am 13
mph
1015.5mb 49f 54f
11:18am 13 14 mph 1015.6mb 49f 54f
11:12am 10 11 mph 1015.6mb 49f 54f
11:06am 10
mph
1015.6mb 49f 53f
11:00am 9
mph
1015.6mb 49f 53f
10:54am 8 9 mph 1015.5mb 49f 55f
10:48am 7 10 mph - - -
10:42am 11 14 mph 1015.4mb 49f 54f
10:36am 11 14 mph 1015.4mb 49f 53f
10:30am 5 7 mph 1015.2mb 49f 53f
10:24am 7
mph
1015mb 49f 53f
10:18am 6 8 mph - - -
10:12am 8 10 mph 1015mb 49f 52f
10:06am 10 13 mph 1015.1mb 49f 52f
10:00am 11 13 mph 1015.3mb 49f 52f
9:54am 10 11 mph 1015.1mb 50f 53f
9:48am 10
mph
1015mb 50f 53f
9:42am 8 10 mph 1015mb 50f 52f
9:36am 9 11 mph 1015mb 50f 51f
9:30am 10 11 mph 1014.8mb 51f 51f
9:24am 10
mph
1014.8mb 51f 52f
9:18am 9 10 mph 1015mb 51f 52f
9:12am 9
mph
1015.4mb 51f 51f
9:06am 9 10 mph 1015.4mb 51f 52f
9:00am 5 7 mph 1015.1mb 51f 52f
8:54am 7 11 mph 1014.3mb 51f 53f
8:48am 10 11 mph 1014.7mb 51f 52f
8:42am 9 10 mph 1014.8mb 51f 52f
8:36am 10
mph
1015.1mb 51f 51f
8:30am 9 11 mph 1015.3mb 51f 51f
8:24am 8 10 mph 1015.1mb 51f 51f
8:18am 10 11 mph 1015.3mb 51f 51f
8:12am 9 13 mph 1015.2mb 51f 51f
8:06am 8 9 mph 1015.2mb 51f 52f
8:00am 6 8 mph 1015mb 51f 52f
7:30am 10 11 mph 1014.7mb 51f 51f
7:24am 9 10 mph 1014.6mb 51f 51f
7:18am 9 10 mph 1014.6mb 51f 51f
7:12am 9 14 mph 1014.4mb 51f 51f
7:06am 10 13 mph 1014.6mb 51f 51f
7:00am 9 13 mph 1014.6mb 51f 51f
6:54am 11 14 mph 1014.6mb 51f 51f
6:48am 11 16 mph 1014.5mb 51f 52f
6:42am 13 15 mph 1014.8mb 51f 52f
6:36am 10
mph
1014.3mb 52f 52f
6:30am 8 10 mph 1013.9mb 52f 52f
6:24am 9 10 mph 1014mb 52f 52f
6:18am 11 14 mph 1013.9mb 52f 52f
6:12am 10 11 mph 1014mb 51f 52f
6:06am 8 9 mph 1014mb 51f 52f
6:00am 7 8 mph 1013.9mb 51f 52f
5:54am 7
mph
1013.7mb 51f 52f
5:48am 6 7 mph - - -
5:42am 6 7 mph 1013.7mb 50f 52f
5:36am 6 7 mph 1013.7mb 50f 52f
5:30am 7
mph
1013.7mb 50f 52f
5:24am 6 7 mph 1013.7mb 50f 52f
5:18am 6 7 mph 1013.7mb 50f 52f
5:12am 6 7 mph 1013.7mb 51f 52f
5:06am 6
mph
1013.7mb 50f 52f
5:00am 5 6 mph 1013.7mb 51f 52f
4:54am 5 6 mph 1013.6mb 51f 53f
4:48am 5 6 mph 1013.5mb 51f 52f
4:42am 6 7 mph 1013.5mb 52f 52f
4:36am 7 8 mph 1013.6mb 52f 52f
4:30am 7
mph
1013.5mb 52f 52f
4:24am 6 8 mph 1013.7mb 52f 52f
4:18am 8
mph
1013.6mb 52f 52f
4:12am 8 9 mph 1013.6mb 52f 52f
4:06am 8 9 mph 1013.8mb 52f 52f
4:00am 8 9 mph 1013.9mb 52f 52f
3:54am 8 9 mph 1013.9mb 52f 52f
3:48am 8
mph
1013.9mb 52f 52f
3:42am 8 9 mph 1013.9mb 52f 52f
3:36am 8 9 mph 1013.9mb 52f 52f
3:30am 8 9 mph 1013.9mb 52f 52f
3:24am 8 10 mph 1013.9mb 52f 52f
3:18am 9
mph
- - -
3:12am 7
mph
1013.8mb 52f 52f
3:06am 5 6 mph 1013.7mb 52f 52f
3:00am 6 7 mph 1013.7mb 52f 52f
2:54am 7
mph
1013.8mb 52f 52f
2:48am 7
mph
- - -
2:42am 7
mph
1013.8mb 51f 52f
2:36am 6 9 mph 1013.9mb 51f 52f
2:30am 7 8 mph 1014mb 50f 52f
2:24am 7 8 mph 1014mb 50f 52f
2:18am 7
mph
- - -
2:12am 6
mph
1014mb 49f 52f
2:06am 5 7 mph 1014mb 49f 52f
2:00am 6 7 mph 1014.1mb 49f 51f
1:54am 6 7 mph 1014.1mb 49f 51f
1:48am 6
mph
- - -
1:42am 6
mph
1014.1mb 49f 51f
1:36am 6 7 mph 1014.1mb 49f 51f
1:30am 6 7 mph 1014.2mb 49f 51f
1:24am 6 7 mph 1014.3mb 49f 51f
1:18am 7 8 mph - - -
1:12am 6 8 mph 1014.3mb 50f 51f
1:06am 8 9 mph 1014.4mb 49f 51f
1:00am 8 10 mph 1014.5mb 50f 51f
12:54am 9 10 mph 1014.6mb 50f 51f
12:48am 9 10 mph - - -
12:42am 9 10 mph 1014.6mb 49f 52f
12:36am 7 8 mph 1014.6mb 49f 51f
12:30am 7 8 mph 1014.6mb 49f 51f
12:24am 7 9 mph 1014.5mb 49f 51f
12:18am 9 10 mph 1014.6mb 49f 52f
12:12am 9 10 mph 1014.6mb 49f 52f
12:06am 9 10 mph 1014.7mb 49f 52f
12:00am 8 9 mph 1014.8mb 49f 52f
Thu 04/27 11:54pm 8 10 mph 1014.8mb 49f 52f
11:48pm 8 9 mph - - -
11:42pm 7
mph
1014.7mb 49f 52f
11:36pm 7
mph
1014.7mb 49f 52f
11:30pm 6
mph
1014.7mb 49f 52f
11:24pm 5
mph
1014.5mb 49f 52f
11:18pm 5
mph
1014.4mb 49f 52f
11:12pm 3 5 mph 1014.3mb 49f 52f
11:06pm 3 5 mph 1014.4mb 49f 52f
11:00pm 5
mph
1014.5mb 49f 53f
10:54pm 5 6 mph 1014.5mb 49f 53f
10:48pm 6 7 mph - - -
10:42pm 7
mph
1014.7mb 49f 53f
10:36pm 7
mph
1014.7mb 49f 53f
10:30pm 7 8 mph 1014.7mb 49f 52f
10:24pm 7 8 mph 1014.8mb 49f 52f
10:18pm 7 8 mph 1014.9mb - -
10:12pm 7 8 mph 1014.9mb 49f 53f
10:06pm 7 8 mph 1015mb 49f 53f
10:00pm 7 8 mph 1014.9mb 49f 53f
9:54pm 6 7 mph 1014.8mb 49f 53f
9:48pm 6 8 mph 1014.8mb - -
9:42pm 7 8 mph 1014.7mb 49f 53f
9:36pm 7 8 mph 1014.8mb 49f 53f
9:30pm 8 9 mph 1014.9mb 49f 53f
9:24pm 8 9 mph 1014.8mb 50f 52f
9:18pm 8 9 mph - - -
9:12pm 9 10 mph 1014.9mb 50f 53f
9:06pm 10 11 mph 1014.8mb 50f 53f
9:00pm 11
mph
- 50f 53f
8:48pm 11 13 mph 1014.8mb - -
8:42pm 11
mph
1014.7mb 50f 52f
8:36pm 10 11 mph 1014.6mb 51f 51f
8:30pm 11 13 mph 1014.5mb 51f 51f
8:24pm 11 13 mph 1014.4mb 51f 51f
8:18pm 13 14 mph - - -
8:12pm 11 14 mph 1014.3mb 51f 51f
8:06pm 13 14 mph 1014.3mb 51f 52f
8:00pm 14
mph
1014.3mb 51f 52f
7:48pm 13 14 mph 1014mb - -
7:42pm 11 13 mph 1014mb 51f 52f
7:36pm 11 13 mph 1013.9mb 51f 53f
7:30pm 11
mph
1013.8mb 51f 52f
7:24pm 11 13 mph 1013.8mb 51f 52f
7:18pm 11 13 mph 1013.7mb - -
7:12pm 13 14 mph 1013.7mb 52f 53f
7:06pm 13 14 mph 1013.7mb 52f 53f
7:00pm 11 14 mph 1013.6mb 52f 53f
6:48pm 14
mph
1013.5mb - -
6:42pm 13 14 mph 1013.4mb 52f 53f
6:36pm 13 14 mph 1013.5mb 52f 53f
6:30pm 14 16 mph 1013.5mb 52f -
6:24pm 11 13 mph 1013.5mb 52f 53f
6:18pm 11 13 mph - - -
6:12pm 13 14 mph 1013.4mb 52f 53f
6:06pm 14 15 mph 1013.5mb 53f 53f
6:00pm 14 15 mph 1013.5mb 53f 53f
5:48pm 15 16 mph 1013.5mb - -
5:42pm 16 18 mph 1013.5mb 53f 53f
5:36pm 16 17 mph 1013.4mb 53f 53f
5:30pm 16 17 mph 1013.3mb 53f 54f
5:24pm 14 15 mph 1013.2mb 53f 54f
5:18pm 13 14 mph 1013.3mb 53f 54f
5:12pm 14
mph
1013.3mb 53f 55f
5:06pm 13 14 mph 1013.2mb 53f 55f
5:00pm 14 15 mph 1013.2mb 53f 55f
4:48pm 13 15 mph 1013.2mb 53f 54f
4:42pm 15 16 mph 1013.2mb 53f 55f
4:36pm 15 16 mph 1013.2mb 53f 54f
4:30pm 16 18 mph 1013.2mb 53f 54f
4:24pm 16 17 mph 1013.1mb 53f 55f
4:18pm 16 17 mph 1013.2mb 53f 55f
4:12pm 15 16 mph 1013.2mb 53f 55f
4:06pm 15 16 mph 1013.2mb 53f 56f
4:00pm 14 15 mph 1013.1mb 53f 56f
3:54pm 15 16 mph 1013.1mb 53f 56f
3:48pm 15
mph
1013.1mb 53f 56f
3:42pm 13 14 mph 1013.1mb 53f 56f
3:36pm 14 15 mph 1013.3mb 53f 56f
3:30pm 14 15 mph 1013.4mb 53f 56f
3:24pm 13 14 mph 1013.4mb 53f 56f
3:18pm 13 14 mph 1013.5mb 53f 56f
3:12pm 13
mph
1013.4mb 53f 56f
3:06pm 11
mph
1013.4mb 52f 55f
3:00pm 11
mph
1013.5mb 52f -
2:54pm 11 13 mph 1013.6mb 52f 55f
2:48pm 11 13 mph 1013.6mb 52f 55f
2:42pm 10 13 mph 1013.6mb 52f 55f
2:36pm 11 13 mph 1013.6mb 52f 55f
2:30pm 11 13 mph 1013.6mb 52f 55f
2:24pm 11 13 mph 1013.5mb 52f 55f
2:18pm 13
mph
1013.6mb 52f 55f
2:06pm 11 13 mph 1013.6mb 52f 54f
2:00pm 11 13 mph 1013.6mb 52f 55f
1:54pm 11 14 mph 1013.7mb 52f 54f
1:48pm 13 14 mph 1013.8mb 51f 54f
1:42pm 11 14 mph 1013.7mb 51f 54f
1:36pm 11 13 mph 1013.7mb 51f 54f
1:24pm 11 13 mph 1013.7mb 51f 54f
1:18pm 11 13 mph 1013.6mb 51f 54f
1:12pm 13 14 mph 1013.8mb 50f 54f
1:06pm 11 13 mph 1013.7mb 49f 53f
1:00pm 13 14 mph 1013.6mb 49f 53f
12:42pm 11 14 mph 1013.6mb 49f 53f
12:36pm 11 14 mph 1013.6mb 49f 53f
12:30pm 14 15 mph 1013.6mb 48f 53f
12:24pm 14 15 mph 1013.6mb 48f 53f
12:18pm 14 15 mph 1013.6mb 48f 53f
12:12pm 15
mph
1013.6mb 48f 53f
12:06pm 11 14 mph 1013.8mb 48f 53f
11:54am 5 6 mph 1013.9mb 48f 55f
11:48am 5
mph
- - -
11:42am 5
mph
1013.7mb 48f 54f
11:36am 2 5 mph 1013.7mb 48f 54f
11:30am 5 6 mph 1013.7mb 48f -
11:24am 6 8 mph 1013.7mb 48f 54f
11:18am 8 10 mph - - -
11:12am 9 10 mph 1013.6mb 48f 54f
11:06am 8
mph
1013.7mb 48f 54f
10:54am 7
mph
1013.8mb 48f 53f
10:48am 6 7 mph - - -
10:42am 6
mph
1013.8mb 49f 54f
10:36am 6 7 mph 1013.8mb 49f 54f
10:30am 5 6 mph 1013.7mb 49f 54f
10:24am 3 5 mph 1013.7mb 49f 53f
10:18am 3 6 mph 1013.7mb 49f 53f
10:12am 6
mph
1013.7mb 49f 53f
10:06am 5 6 mph 1013.6mb 49f 53f
10:00am 5 6 mph 1013.6mb 49f 52f
9:54am 5 6 mph 1013.7mb 49f 52f
9:48am 5 6 mph - - -
9:42am 6
mph
1013.6mb 49f 53f
9:36am 5
mph
1013.6mb 49f 53f
9:30am 5
mph
1013.7mb 49f 53f
9:24am 3 5 mph 1013.6mb 49f 52f
9:18am 5 6 mph 1013.6mb 49f 52f
9:12am 6
mph
1013.5mb 49f 52f
9:06am 7
mph
1013.6mb 49f 52f
9:00am 6
mph
1013.6mb 49f 53f
8:54am 5 6 mph 1013.6mb 49f 53f
8:48am 3 6 mph - - -
8:42am 6
mph
1013.6mb 49f 53f
8:36am 5
mph
1013.6mb 49f 52f
8:30am 5
mph
1013.5mb 49f 53f
8:24am 5
mph
1013.4mb 49f 52f
8:18am 3 6 mph 1013.5mb 50f 53f
8:12am 5 6 mph 1013.5mb 50f 53f
8:06am 5 6 mph 1013.4mb 50f 52f
8:00am 5
mph
1013.3mb 50f 52f
7:42am 5 6 mph 1013.1mb 50f 53f
7:36am 6
mph
1012.9mb 50f 53f
7:30am 5
mph
1012.8mb 50f 53f
7:24am 5 6 mph 1012.7mb 50f 53f
7:18am 6 7 mph 1012.6mb 50f 53f
7:12am 7
mph
1012.5mb 50f 53f
7:06am 6 7 mph 1012.5mb 50f 54f
5:48am 2 3 mph - - -
5:42am 3 5 mph 1011.9mb 49f 54f
5:36am 3 5 mph 1012mb 49f 54f
5:30am 5 6 mph 1011.9mb 49f 54f
5:24am  -  3 mph 1011.8mb 49f 54f
5:18am 3 5 mph 1011.6mb 49f 54f
5:12am 5 6 mph 1011.5mb 49f 54f
5:06am 5 9 mph 1011.4mb 49f 53f
5:00am 7 8 mph 1011.1mb 49f 53f
4:54am 7 8 mph 1011.2mb 49f 53f
4:48am 7 8 mph - - -
4:42am 7
mph
1011.1mb 50f 54f
4:36am 6 7 mph 1011mb 50f 55f
4:30am 6 9 mph 1010.8mb 50f 55f
4:24am 7 10 mph 1010.6mb 50f 55f
4:18am 9 10 mph 1010.5mb 50f 55f
4:12am 8 10 mph 1010.6mb 50f 55f
4:06am 8 10 mph 1010.6mb 50f 54f
4:00am 9 10 mph 1010.5mb 50f 54f
3:54am 8 10 mph 1010.6mb 50f 55f
3:48am 8 11 mph 1010.7mb 50f 55f
3:42am 7 9 mph 1010.9mb 50f 54f
3:36am 8 10 mph 1010.8mb 50f 54f
3:30am 8 9 mph 1010.9mb 50f 54f
3:24am 8 10 mph 1010.8mb 50f 54f
3:18am 9 10 mph 1010.7mb 50f 54f
3:12am 7 8 mph 1010.7mb 50f 54f
3:06am 8 9 mph 1010.6mb 50f 53f
3:00am 7
mph
1010.7mb 50f 53f
2:54am 7 8 mph 1010.8mb 50f 53f
2:48am 6 7 mph - - -
2:42am 6 7 mph 1010.6mb 50f 53f
2:36am 6 7 mph 1010.5mb 50f 53f
2:30am 6 8 mph 1010.4mb 50f 53f
2:24am 6 7 mph 1010.4mb 50f 53f
2:18am 7
mph
- - -
2:12am 6 10 mph 1010.4mb 49f 52f
2:06am 9 10 mph 1010.4mb 49f 52f
2:00am 8 9 mph 1010.4mb 49f 53f
1:54am 3 6 mph 1010.5mb 49f 54f
1:48am 6 7 mph 1010.5mb 48f 54f
1:42am 3
mph
1010.6mb 48f 53f
1:36am 1 2 mph 1010.8mb 48f 53f
1:30am 2
mph
1010.7mb 48f 53f
1:24am  -  2 mph 1010.9mb 48f 52f
1:18am 2
mph
1010.9mb 48f 52f
1:12am  -  1 mph 1010.9mb 49f 52f
1:06am  -  1 mph 1010.9mb 49f 52f
1:00am 1
mph
1010.8mb 48f 52f
12:54am  -  mph 1010.6mb 48f 51f
12:48am  -  1 mph 1010.6mb 48f 51f
12:42am  -  1 mph 1010.6mb 48f 51f
12:36am  -  2 mph 1010.6mb 48f 51f
12:30am 2 6 mph 1010.7mb 48f 51f
12:24am 6
mph
1010.8mb 48f 51f
12:18am 3
mph
1010.8mb 48f 51f
12:12am  -  2 mph 1010.7mb 49f 51f
12:06am 1 2 mph 1010.8mb 49f 51f
12:00am 2 5 mph 1010.9mb 48f 51f
Wed 04/26 11:54pm 3 5 mph 1010.9mb 48f 51f
11:48pm 3 5 mph 1010.9mb - -
11:42pm 3 7 mph 1010.8mb 48f 52f
11:36pm 5 6 mph 1010.8mb 48f 52f
11:30pm 6 7 mph 1010.8mb 48f 52f
11:24pm 7 8 mph 1010.8mb 48f 52f
11:18pm 6
mph
1010.8mb 48f 52f
11:12pm 3
mph
1010.7mb 48f 52f
11:06pm 2
mph
1010.6mb 48f 52f
11:00pm 1
mph
1010.6mb 48f 52f
10:54pm  -  1 mph 1010.6mb 48f 52f
10:48pm 1 2 mph 1010.6mb 48f 52f
10:42pm 2 3 mph 1010.6mb 48f 52f
10:36pm 3 6 mph 1010.7mb 48f 52f
10:30pm 6
mph
1010.7mb 48f 52f
10:24pm 6 8 mph 1010.8mb 48f 52f
10:18pm 8 9 mph 1010.7mb 49f 52f
10:12pm 9
mph
1010.7mb 49f 52f
10:06pm 7 8 mph 1010.7mb 49f 52f
10:00pm 7 9 mph 1010.6mb 49f 52f
9:48pm 10
mph
1010.5mb - -
9:42pm 9 10 mph 1010.4mb 49f 52f
9:36pm 9 10 mph 1010.3mb 49f 53f
9:30pm 9 10 mph 1010.2mb 49f 53f
9:24pm 10
mph
1010.2mb 49f 53f
9:18pm 9 10 mph 1010.1mb - -
9:12pm 10 11 mph 1010.1mb 49f 53f
9:06pm 11
mph
1010mb 49f 53f
9:00pm 7 9 mph 1009.8mb 49f 53f
8:48pm 5 6 mph - - -